createdAt,value
2018-02-06T00:01:17.971Z,26.33
2018-02-06T00:03:45.431Z,27.83
2018-02-06T00:06:12.901Z,25.40
2018-02-06T00:08:40.402Z,22.43
2018-02-06T00:11:08.657Z,22.53
2018-02-06T00:13:36.138Z,22.43
2018-02-06T00:16:04.415Z,21.47
2018-02-06T00:18:32.746Z,22.80
2018-02-06T00:21:00.292Z,21.50
2018-02-06T00:23:27.772Z,22.20
2018-02-06T00:25:55.239Z,19.33
2018-02-06T00:28:22.711Z,21.07
2018-02-06T00:30:50.222Z,22.53
2018-02-06T00:33:17.710Z,16.07
2018-02-06T00:35:45.181Z,24.93
2018-02-06T00:38:12.687Z,22.17
2018-02-06T00:40:40.209Z,22.20
2018-02-06T00:43:08.473Z,20.43
2018-02-06T00:45:35.958Z,20.80
2018-02-06T00:48:04.193Z,23.00
2018-02-06T00:50:31.678Z,19.90
2018-02-06T00:52:59.177Z,19.87
2018-02-06T00:55:26.677Z,19.80
2018-02-06T00:57:54.513Z,19.80
2018-02-06T01:00:21.983Z,22.80
2018-02-06T01:02:49.465Z,21.17
2018-02-06T01:05:16.958Z,18.20
2018-02-06T01:07:45.191Z,21.27
2018-02-06T01:10:12.652Z,19.97
2018-02-06T01:12:40.144Z,19.90
2018-02-06T01:15:08.421Z,19.37
2018-02-06T01:17:36.665Z,21.87
2018-02-06T01:20:04.129Z,20.77
2018-02-06T01:22:31.884Z,21.43
2018-02-06T01:24:59.351Z,21.67
2018-02-06T01:27:26.834Z,20.07
2018-02-06T01:29:55.071Z,20.30
2018-02-06T01:32:22.546Z,21.00
2018-02-06T01:34:50.051Z,20.50
2018-02-06T01:37:17.532Z,19.00
2018-02-06T01:39:45.004Z,19.30
2018-02-06T01:42:12.482Z,21.50
2018-02-06T01:44:39.957Z,18.17
2018-02-06T01:47:08.194Z,19.00
2018-02-06T01:49:35.718Z,19.10
2018-02-06T01:52:03.194Z,19.70
2018-02-06T01:54:30.698Z,21.90
2018-02-06T01:56:58.173Z,20.10
2018-02-06T01:59:26.429Z,24.03
2018-02-06T02:01:53.898Z,19.90
2018-02-06T02:04:22.150Z,20.50
2018-02-06T02:06:49.623Z,18.97
2018-02-06T02:09:17.120Z,20.00
2018-02-06T02:11:44.585Z,21.40
2018-02-06T02:14:12.082Z,21.30
2018-02-06T02:16:39.553Z,16.00
2018-02-06T02:19:07.110Z,19.33
2018-02-06T02:21:34.593Z,20.57
2018-02-06T02:24:02.844Z,22.37
2018-02-06T02:26:30.321Z,19.57
2018-02-06T02:28:58.586Z,20.53
2018-02-06T02:31:27.579Z,22.17
2018-02-06T02:33:56.553Z,21.90
2018-02-06T02:36:24.033Z,17.83
2018-02-06T02:38:51.522Z,21.67
2018-02-06T02:41:18.995Z,21.43
2018-02-06T04:39:30.212Z,20.30
2018-02-06T04:41:57.713Z,20.40
2018-02-06T04:44:25.174Z,17.70
2018-02-06T04:46:53.416Z,21.17
2018-02-06T04:49:20.905Z,18.80
2018-02-06T04:51:48.373Z,19.30
2018-02-06T04:54:16.635Z,20.13
2018-02-06T04:56:44.186Z,18.70
2018-02-06T04:59:11.647Z,20.13
2018-02-06T05:01:39.119Z,20.90
2018-02-06T05:04:07.373Z,23.17
2018-02-06T05:06:34.884Z,23.73
2018-02-06T05:09:02.372Z,20.17
2018-02-06T05:11:29.856Z,20.13
2018-02-06T05:13:57.355Z,21.77
2018-02-06T05:16:24.821Z,21.60
2018-02-06T05:18:52.313Z,21.63
2018-02-06T05:21:19.797Z,22.17
2018-02-06T05:23:48.049Z,26.23
2018-02-06T05:26:15.541Z,21.00
2018-02-06T05:28:43.803Z,23.77
2018-02-06T05:31:11.297Z,22.30
2018-02-06T05:33:38.768Z,24.30
2018-02-06T05:36:06.265Z,23.87
2018-02-06T05:38:33.747Z,26.00
2018-02-06T05:41:02.013Z,23.20
2018-02-06T05:43:29.484Z,21.60
2018-02-06T05:45:56.993Z,25.20
2018-02-06T05:48:24.457Z,22.03
2018-02-06T05:50:52.125Z,19.90
2018-02-06T05:53:19.593Z,23.43
2018-02-06T05:55:47.082Z,20.90
2018-02-06T05:58:14.559Z,21.50
2018-02-06T06:00:42.039Z,24.80
2018-02-06T06:03:09.519Z,21.00
2018-02-06T06:05:37.094Z,20.33
2018-02-06T06:08:04.576Z,22.00
2018-02-06T06:10:32.823Z,23.50
2018-02-06T06:13:00.303Z,23.33
2018-02-06T06:15:27.793Z,22.03
2018-02-06T06:17:55.308Z,22.37
2018-02-06T06:20:22.780Z,23.43
2018-02-06T06:22:50.268Z,21.00
2018-02-06T06:25:17.738Z,21.77
2018-02-06T06:27:45.236Z,22.93
2018-02-06T06:30:12.723Z,24.20
2018-02-06T06:32:40.183Z,25.17
2018-02-06T06:35:08.443Z,22.57
2018-02-06T06:37:35.929Z,23.07
2018-02-06T06:40:04.175Z,21.93
2018-02-06T06:42:31.647Z,23.63
2018-02-06T06:44:59.143Z,23.87
2018-02-06T06:47:26.712Z,21.17
2018-02-06T06:49:54.194Z,21.20
2018-02-06T06:52:21.681Z,23.47
2018-02-06T06:54:49.947Z,23.33
2018-02-06T06:57:18.220Z,20.77
2018-02-06T06:59:45.694Z,21.50
2018-02-06T07:02:13.941Z,22.80
2018-02-06T07:04:41.446Z,22.50
2018-02-06T07:07:09.676Z,21.93
2018-02-06T07:09:37.166Z,23.80
2018-02-06T07:12:05.415Z,21.00
2018-02-06T07:14:33.694Z,21.93
2018-02-06T07:17:01.195Z,21.23
2018-02-06T07:19:29.443Z,23.20
2018-02-06T07:21:56.930Z,21.70
2018-02-06T07:24:24.415Z,22.03
2018-02-06T07:26:51.916Z,21.97
2018-02-06T07:29:19.414Z,21.87
2018-02-06T07:31:46.899Z,24.00
2018-02-06T07:34:14.389Z,20.00
2018-02-06T07:36:41.860Z,21.00
2018-02-06T07:39:09.334Z,21.60
2018-02-06T07:41:37.589Z,22.20
2018-02-06T07:44:05.052Z,21.87
2018-02-06T07:46:32.518Z,18.40
2018-02-06T07:49:00.751Z,21.33
2018-02-06T07:51:28.280Z,20.83
2018-02-06T07:53:55.956Z,20.60
2018-02-06T07:56:23.458Z,20.80
2018-02-06T07:58:50.977Z,18.83
2018-02-06T08:01:18.449Z,20.83
2018-02-06T08:03:45.973Z,22.53
2018-02-06T08:06:13.469Z,21.43
2018-02-06T08:08:40.961Z,21.57
2018-02-06T08:11:08.599Z,21.70
2018-02-06T08:13:36.083Z,19.33
2018-02-06T08:16:03.563Z,20.10
2018-02-06T08:18:31.819Z,19.33
2018-02-06T08:21:01.288Z,20.93
2018-02-06T08:23:28.798Z,21.77
2018-02-06T08:25:57.059Z,21.67
2018-02-06T08:28:24.547Z,20.40
2018-02-06T08:30:52.008Z,19.93
2018-02-06T08:33:19.618Z,21.47
2018-02-06T08:35:47.110Z,22.63
2018-02-06T08:38:15.383Z,19.40
2018-02-06T08:40:43.618Z,19.53
2018-02-06T08:43:11.109Z,21.60
2018-02-06T08:45:38.606Z,20.10
2018-02-06T08:48:06.089Z,21.27
2018-02-06T08:50:33.590Z,19.70
2018-02-06T08:53:01.822Z,22.40
2018-02-06T08:55:29.319Z,23.20
2018-02-06T08:57:57.292Z,19.87
2018-02-06T09:00:24.796Z,20.87
2018-02-06T09:02:52.265Z,20.20
2018-02-06T09:05:19.818Z,22.30
2018-02-06T09:07:47.312Z,20.40
2018-02-06T09:10:14.795Z,21.10
2018-02-06T09:12:43.066Z,20.37
2018-02-06T09:15:10.551Z,22.77
2018-02-06T09:17:38.038Z,21.70
2018-02-06T09:20:05.500Z,18.83
2018-02-06T09:22:32.987Z,16.03
2018-02-06T09:25:00.473Z,19.67
2018-02-06T09:27:28.716Z,19.70
2018-02-06T09:29:56.184Z,21.20
2018-02-06T09:32:23.672Z,19.93
2018-02-06T09:34:51.150Z,20.20
2018-02-06T09:37:18.642Z,20.33
2018-02-06T09:39:46.319Z,20.57
2018-02-06T09:42:13.790Z,20.50
2018-02-06T09:44:41.256Z,21.13
2018-02-06T09:47:09.542Z,21.53
2018-02-06T09:49:37.799Z,16.30
2018-02-06T09:52:05.292Z,20.33
2018-02-06T09:54:32.801Z,21.07
2018-02-06T09:57:00.419Z,22.73
2018-02-06T09:59:27.894Z,21.63
2018-02-06T10:01:55.547Z,24.43
2018-02-06T10:04:23.030Z,21.30
2018-02-06T10:06:50.569Z,25.80
2018-02-06T10:09:18.770Z,22.43
2018-02-06T10:11:46.691Z,24.20
2018-02-06T10:14:14.972Z,23.20
2018-02-06T10:16:42.439Z,23.57
2018-02-06T10:19:09.973Z,23.43
2018-02-06T10:21:38.247Z,24.80
2018-02-06T10:24:07.052Z,23.30
2018-02-06T10:26:34.520Z,22.47
2018-02-06T10:29:02.002Z,23.70
2018-02-06T10:31:29.485Z,21.13
2018-02-06T10:33:57.004Z,23.40
2018-02-06T10:36:24.472Z,23.63
2018-02-06T10:38:53.008Z,21.50
2018-02-06T10:41:21.252Z,21.50
2018-02-06T10:43:49.713Z,23.20
2018-02-06T10:46:17.197Z,22.27
2018-02-06T10:48:45.045Z,21.97
2018-02-06T10:51:13.366Z,25.83
2018-02-06T10:53:41.649Z,20.67
2018-02-06T10:56:09.934Z,22.17
2018-02-06T10:58:37.484Z,22.50
2018-02-06T11:01:05.168Z,26.90
2018-02-06T11:03:32.680Z,25.17
2018-02-06T11:06:00.167Z,25.40
2018-02-06T11:08:30.014Z,25.70
2018-02-06T11:10:59.451Z,25.87
2018-02-06T11:13:27.261Z,24.73
2018-02-06T11:15:55.491Z,21.97
2018-02-06T11:18:24.838Z,24.20
2018-02-06T11:20:52.354Z,28.33
2018-02-06T11:23:19.838Z,24.60
2018-02-06T11:25:47.311Z,22.10
2018-02-06T11:28:15.579Z,26.57
2018-02-06T11:30:43.029Z,27.97
2018-02-06T11:33:10.627Z,26.93
2018-02-06T11:35:38.160Z,26.23
2018-02-06T11:38:06.415Z,26.00
2018-02-06T11:40:34.950Z,27.20
2018-02-06T11:43:02.434Z,24.57
2018-02-06T11:45:29.931Z,24.77
2018-02-06T11:47:57.424Z,28.80
2018-02-06T11:50:24.924Z,33.80
2018-02-06T11:52:52.443Z,29.37
2018-02-06T11:55:20.106Z,25.20
2018-02-06T11:57:47.583Z,27.53
2018-02-06T12:00:15.063Z,29.67
2018-02-06T12:02:42.577Z,29.93
2018-02-06T12:05:10.080Z,26.67
2018-02-06T12:07:37.631Z,24.83
2018-02-06T12:10:05.120Z,28.93
2018-02-06T12:12:32.630Z,28.50
2018-02-06T12:15:00.107Z,27.47
2018-02-06T12:17:27.579Z,25.33
2018-02-06T12:19:55.143Z,27.07
2018-02-06T12:22:22.621Z,25.80
2018-02-06T12:24:50.891Z,26.67
2018-02-06T12:27:19.138Z,26.43
2018-02-06T12:29:46.627Z,27.63
2018-02-06T12:32:18.150Z,26.93
2018-02-06T12:34:45.646Z,28.10
2018-02-06T12:37:13.139Z,29.60
2018-02-06T12:39:40.631Z,30.50
2018-02-06T12:42:08.586Z,31.37
2018-02-06T12:44:38.333Z,29.60
2018-02-06T12:47:08.386Z,29.63
2018-02-06T12:49:36.654Z,29.97
2018-02-06T12:52:04.918Z,30.43
2018-02-06T12:54:35.401Z,28.43
2018-02-06T12:57:07.685Z,29.27
2018-02-06T12:59:36.038Z,28.73
2018-02-06T13:02:11.516Z,31.80
2018-02-06T13:04:40.042Z,28.20
2018-02-06T13:07:08.321Z,30.10
2018-02-06T13:09:37.534Z,31.97
2018-02-06T13:12:05.020Z,31.10
2018-02-06T13:14:32.525Z,31.13
2018-02-06T13:17:00.064Z,29.90
2018-02-06T13:19:27.537Z,29.30
2018-02-06T13:21:55.006Z,28.90
2018-02-06T13:24:23.277Z,31.50
2018-02-06T13:26:51.558Z,31.30
2018-02-06T13:29:19.793Z,29.73
2018-02-06T13:31:47.300Z,32.60
2018-02-06T13:34:15.541Z,29.33
2018-02-06T13:36:43.019Z,31.03
2018-02-06T13:39:10.541Z,31.20
2018-02-06T13:41:38.164Z,32.63
2018-02-06T13:44:05.649Z,31.13
2018-02-06T13:46:33.142Z,32.20
2018-02-06T13:49:00.630Z,31.67
2018-02-06T13:51:28.904Z,33.40
2018-02-06T13:53:56.407Z,30.57
2018-02-06T13:56:23.983Z,34.20
2018-02-06T13:58:51.785Z,29.77
2018-02-06T14:01:19.282Z,34.40
2018-02-06T14:03:46.834Z,29.47
2018-02-06T14:06:14.323Z,33.67
2018-02-06T14:08:41.806Z,35.27
2018-02-06T14:11:09.295Z,29.97
2018-02-06T14:13:37.601Z,33.10
2018-02-06T14:16:05.124Z,34.70
2018-02-06T14:18:32.607Z,33.27
2018-02-06T14:21:00.105Z,30.57
2018-02-06T14:23:27.613Z,32.07
2018-02-06T14:25:55.852Z,33.97
2018-02-06T14:28:23.351Z,30.90
2018-02-06T14:30:51.705Z,35.80
2018-02-06T14:33:19.187Z,33.17
2018-02-06T14:35:47.512Z,30.70
2018-02-06T14:38:17.500Z,33.23
2018-02-06T14:40:44.970Z,32.50
2018-02-06T14:43:12.835Z,31.83
2018-02-06T14:45:40.319Z,33.63
2018-02-06T14:48:07.824Z,31.10
2018-02-06T14:50:36.355Z,36.63
2018-02-06T14:53:03.843Z,34.33
2018-02-06T14:55:32.110Z,33.90
2018-02-06T14:58:00.405Z,36.83
2018-02-06T15:00:28.820Z,35.63
2018-02-06T15:02:57.549Z,35.47
2018-02-06T15:05:25.342Z,36.40
2018-02-06T15:07:54.103Z,37.87
2018-02-06T15:10:21.596Z,36.43
2018-02-06T15:12:49.831Z,37.03
2018-02-06T15:15:17.449Z,38.17
2018-02-06T15:17:45.013Z,41.33
2018-02-06T15:20:12.630Z,39.40
2018-02-06T15:22:40.118Z,39.20
2018-02-06T15:25:08.405Z,39.63
2018-02-06T15:27:36.067Z,39.23
2018-02-06T15:30:03.615Z,39.03
2018-02-06T15:32:33.799Z,37.67
2018-02-06T15:35:01.292Z,41.20
2018-02-06T15:37:29.550Z,40.33
2018-02-06T15:39:57.058Z,41.67
2018-02-06T15:42:24.545Z,39.47
2018-02-06T15:44:52.210Z,37.77
2018-02-06T15:47:19.697Z,39.33
2018-02-06T15:49:47.161Z,38.73
2018-02-06T15:52:15.410Z,39.43
2018-02-06T15:54:42.900Z,40.30
2018-02-06T15:57:11.148Z,41.60
2018-02-06T15:59:38.631Z,41.37
2018-02-06T16:02:06.950Z,37.10
2018-02-06T16:04:34.409Z,36.77
2018-02-06T16:07:01.925Z,37.43
2018-02-06T16:09:30.713Z,39.50
2018-02-06T16:11:59.008Z,36.57
2018-02-06T16:14:29.375Z,38.60
2018-02-06T16:16:57.200Z,37.30
2018-02-06T16:19:25.466Z,36.93
2018-02-06T16:21:53.128Z,38.70
2018-02-06T16:24:21.386Z,40.10
2018-02-06T16:26:48.862Z,39.80
2018-02-06T16:29:16.358Z,42.07
2018-02-06T16:31:44.111Z,39.43
2018-02-06T16:34:11.601Z,40.77
2018-02-06T16:36:39.089Z,39.67
2018-02-06T16:39:06.560Z,43.07
2018-02-06T16:41:34.836Z,40.70
2018-02-06T16:44:02.314Z,41.63
2018-02-06T16:46:29.805Z,42.83
2018-02-06T16:48:57.289Z,46.47
2018-02-06T16:51:24.771Z,44.70
2018-02-06T16:53:53.030Z,41.43
2018-02-06T16:56:20.513Z,43.03
2018-02-06T16:58:48.765Z,42.07
2018-02-06T17:01:16.250Z,40.83
2018-02-06T17:03:44.513Z,40.40
2018-02-06T17:06:12.018Z,38.77
2018-02-06T17:08:39.558Z,43.00
2018-02-06T17:11:07.829Z,43.97
2018-02-06T17:13:36.250Z,41.97
2018-02-06T17:16:04.141Z,42.23
2018-02-06T17:18:31.640Z,41.33
2018-02-06T17:20:59.893Z,45.10
2018-02-06T17:23:27.809Z,45.07
2018-02-06T17:25:55.293Z,44.37
2018-02-06T17:28:22.766Z,47.97
2018-02-06T17:30:50.226Z,44.10
2018-02-06T17:33:17.771Z,45.87
2018-02-06T17:35:45.246Z,43.20
2018-02-06T17:38:13.282Z,45.70
2018-02-06T17:40:40.795Z,45.23
2018-02-06T17:43:09.064Z,47.83
2018-02-06T17:45:36.643Z,45.10
2018-02-06T17:48:05.011Z,44.90
2018-02-06T17:50:33.481Z,48.23
2018-02-06T17:53:00.988Z,45.00
2018-02-06T17:55:28.508Z,46.87
2018-02-06T17:57:56.357Z,46.47
2018-02-06T18:00:23.852Z,44.27
2018-02-06T18:02:52.106Z,42.57
2018-02-06T18:05:19.611Z,43.10
2018-02-06T18:07:47.101Z,43.13
2018-02-06T18:10:14.582Z,43.70
2018-02-06T18:12:42.084Z,46.50
2018-02-06T18:15:09.568Z,39.50
2018-02-06T18:17:37.065Z,42.93
2018-02-06T18:20:04.541Z,43.03
2018-02-06T18:22:32.791Z,45.80
2018-02-06T18:25:00.274Z,42.97
2018-02-06T18:27:28.590Z,43.27
2018-02-06T18:29:56.131Z,46.63
2018-02-06T18:32:23.629Z,50.80
2018-02-06T18:34:51.123Z,49.30
2018-02-06T18:37:18.613Z,47.07
2018-02-06T18:39:46.108Z,49.50
2018-02-06T18:42:13.618Z,48.47
2018-02-06T18:44:41.103Z,45.53
2018-02-06T18:47:08.586Z,45.33
2018-02-06T18:49:36.126Z,46.00
2018-02-06T18:52:03.637Z,46.07
2018-02-06T18:54:31.882Z,45.70
2018-02-06T18:56:59.403Z,47.13
2018-02-06T18:59:27.407Z,40.97
2018-02-06T19:01:54.903Z,42.70
2018-02-06T19:04:23.164Z,48.33
2018-02-06T19:06:52.165Z,47.00
2018-02-06T19:09:20.436Z,46.50
2018-02-06T19:11:47.915Z,45.60
2018-02-06T19:14:16.171Z,45.07
2018-02-06T19:16:44.111Z,40.10
2018-02-06T19:19:12.749Z,43.60
2018-02-06T19:21:40.379Z,42.67
2018-02-06T19:24:08.973Z,43.37
2018-02-06T19:26:38.508Z,43.93
2018-02-06T19:29:06.173Z,47.07
2018-02-06T19:31:33.802Z,44.27
2018-02-06T19:34:02.019Z,42.00
2018-02-06T19:36:29.900Z,41.60
2018-02-06T19:38:59.247Z,44.90
2018-02-06T19:41:26.884Z,44.37
2018-02-06T19:43:54.390Z,44.63
2018-02-06T19:46:21.921Z,43.50
2018-02-06T19:48:49.385Z,47.13
2018-02-06T19:51:16.898Z,43.47
2018-02-06T19:53:44.381Z,41.23
2018-02-06T19:56:12.071Z,44.87
2018-02-06T19:58:49.169Z,45.23
2018-02-06T20:01:19.833Z,45.17
2018-02-06T20:03:47.960Z,43.87
2018-02-06T20:06:16.227Z,43.80
2018-02-06T20:08:43.730Z,45.00
2018-02-06T20:11:11.212Z,43.40
2018-02-06T20:13:38.706Z,44.30
2018-02-06T20:16:06.264Z,49.67
2018-02-06T20:18:33.971Z,45.90
2018-02-06T20:21:01.560Z,47.00
2018-02-06T20:23:29.055Z,49.60
2018-02-06T20:25:56.742Z,54.10
2018-02-06T20:28:24.982Z,50.40
2018-02-06T20:30:52.580Z,51.00
2018-02-06T20:33:20.907Z,54.37
2018-02-06T20:35:49.509Z,51.17
2018-02-06T20:38:17.131Z,53.17
2018-02-06T20:40:44.649Z,54.27
2018-02-06T20:43:12.950Z,52.60
2018-02-06T20:45:42.055Z,57.57
2018-02-06T20:48:10.496Z,54.90
2018-02-06T20:50:38.077Z,54.07
2018-02-06T20:53:06.329Z,53.17
2018-02-06T20:55:33.954Z,54.80
2018-02-06T20:58:02.230Z,55.73
2018-02-06T21:00:31.273Z,55.40
2018-02-06T21:02:58.938Z,56.87
2018-02-06T21:05:26.756Z,58.80
2018-02-06T21:07:59.000Z,55.57
2018-02-06T21:10:28.017Z,55.67
2018-02-06T21:12:55.576Z,44.20
2018-02-06T21:15:23.577Z,45.50
2018-02-06T21:17:53.496Z,50.80
2018-02-06T21:20:24.601Z,46.63
2018-02-06T21:22:53.150Z,49.03
2018-02-06T21:25:24.981Z,48.67
2018-02-06T21:27:52.586Z,46.17
2018-02-06T21:30:20.129Z,43.97
2018-02-06T21:32:48.443Z,43.17
2018-02-06T21:35:15.956Z,46.93
2018-02-06T21:37:43.765Z,40.97
2018-02-06T21:40:11.265Z,44.03
2018-02-06T21:42:38.796Z,44.43
2018-02-06T21:45:06.343Z,42.90
2018-02-06T21:47:33.853Z,42.50
2018-02-06T21:50:01.342Z,40.80
2018-02-06T21:52:29.747Z,39.73
2018-02-06T21:54:57.226Z,41.77
2018-02-06T21:57:24.698Z,47.43
2018-02-06T21:59:52.224Z,40.73
2018-02-06T22:02:19.743Z,44.73
2018-02-06T22:04:48.135Z,39.43
2018-02-06T22:07:16.414Z,39.80
2018-02-06T22:09:44.670Z,39.33
2018-02-06T22:12:12.197Z,39.87
2018-02-06T22:14:39.724Z,37.87
2018-02-06T22:17:07.212Z,41.87
2018-02-06T22:19:34.911Z,40.87
2018-02-06T22:22:02.429Z,41.10
2018-02-06T22:24:29.923Z,36.40
2018-02-06T22:26:57.414Z,41.30
2018-02-06T22:29:24.944Z,37.03
2018-02-06T22:31:52.435Z,41.57
2018-02-06T22:34:19.936Z,36.33
2018-02-06T22:36:47.418Z,41.20
2018-02-06T22:39:14.942Z,39.43
2018-02-06T22:41:42.430Z,36.67
2018-02-06T22:44:09.936Z,40.83
2018-02-06T22:46:37.746Z,36.57
2018-02-06T22:49:06.032Z,38.33
2018-02-06T22:51:33.639Z,39.10
2018-02-06T22:54:01.128Z,41.63
2018-02-06T22:56:28.602Z,38.40
2018-02-06T22:58:56.076Z,36.83
2018-02-06T23:01:23.607Z,37.00
2018-02-06T23:03:51.074Z,37.80
2018-02-06T23:06:18.616Z,40.47
2018-02-06T23:08:46.224Z,36.87
2018-02-06T23:11:13.726Z,40.83
2018-02-06T23:13:41.230Z,40.70
2018-02-06T23:16:09.462Z,37.57
2018-02-06T23:18:36.948Z,39.00
2018-02-06T23:21:04.426Z,36.47
2018-02-06T23:23:31.910Z,39.70
2018-02-06T23:26:00.154Z,38.33
2018-02-06T23:28:27.646Z,37.00
2018-02-06T23:30:55.911Z,36.70
2018-02-06T23:33:23.407Z,35.23
2018-02-06T23:35:50.926Z,38.67
2018-02-06T23:38:19.201Z,34.07
2018-02-06T23:40:47.458Z,37.60
2018-02-06T23:43:14.948Z,36.40
2018-02-06T23:45:43.188Z,37.50
2018-02-06T23:48:10.661Z,39.07
2018-02-06T23:50:38.130Z,37.33
2018-02-06T23:53:06.395Z,38.57
2018-02-06T23:55:33.908Z,34.87
2018-02-06T23:58:02.117Z,33.67
